Fountain Hill, North Carolina
Current Conditions -  °F | °C
As of 6:35 PM on Friday 31 Oct 2014 (Local Time) from KAFP Reporting Station
Broken Clouds Broken Clouds  
Wind Chill: 59°   Ceiling: 9000
Heat Index: 59°   Visibility: 10mi
Dew Point: 43°   Wind: 0mph
Humidity: 55%   Direction: NA
Pressure: 29.79"   Gusts: NA
Location:  34.9529°N, 80.2682°W
Report Text: KAFP 312235Z AUTO 00000KT 10SM SCT060 BKN090 15/06 A2979 RMK AO2 T01520063
Loading
Personal Weather Stations






























Interactive Weather Map
Tropical Storm Tracking
New forecast layout! Learn more

10-Day Weather Forecast

Advertisements
Track Severe Weather on mobile